sensor_id;sensor_type;location;lat;lon;timestamp;temperature;humidity
53599;DHT22;39485;45.702;11.364;2022-08-11T00:00:11;24.20;68.40
53599;DHT22;39485;45.702;11.364;2022-08-11T00:02:41;24.30;68.80
53599;DHT22;39485;45.702;11.364;2022-08-11T00:05:12;24.20;69.00
53599;DHT22;39485;45.702;11.364;2022-08-11T00:07:49;24.20;69.30
53599;DHT22;39485;45.702;11.364;2022-08-11T00:10:18;24.20;69.40
53599;DHT22;39485;45.702;11.364;2022-08-11T00:12:54;24.20;69.50
53599;DHT22;39485;45.702;11.364;2022-08-11T00:15:22;24.10;69.50
53599;DHT22;39485;45.702;11.364;2022-08-11T00:17:50;24.10;69.80
53599;DHT22;39485;45.702;11.364;2022-08-11T00:20:20;24.10;70.20
53599;DHT22;39485;45.702;11.364;2022-08-11T00:22:47;24.00;70.30
53599;DHT22;39485;45.702;11.364;2022-08-11T00:25:18;24.00;70.30
53599;DHT22;39485;45.702;11.364;2022-08-11T00:27:46;24.00;70.30
53599;DHT22;39485;45.702;11.364;2022-08-11T00:30:12;24.00;70.50
53599;DHT22;39485;45.702;11.364;2022-08-11T00:32:41;23.90;70.60
53599;DHT22;39485;45.702;11.364;2022-08-11T00:35:11;23.90;71.00
53599;DHT22;39485;45.702;11.364;2022-08-11T00:37:38;23.90;71.20
53599;DHT22;39485;45.702;11.364;2022-08-11T00:40:07;23.80;71.50
53599;DHT22;39485;45.702;11.364;2022-08-11T00:45:39;23.80;71.90
53599;DHT22;39485;45.702;11.364;2022-08-11T00:48:32;23.70;71.70
53599;DHT22;39485;45.702;11.364;2022-08-11T00:51:35;23.80;71.40
53599;DHT22;39485;45.702;11.364;2022-08-11T01:25:38;23.90;69.30
53599;DHT22;39485;45.702;11.364;2022-08-11T01:28:20;23.80;69.80
53599;DHT22;39485;45.702;11.364;2022-08-11T01:34:14;23.80;69.00
53599;DHT22;39485;45.702;11.364;2022-08-11T01:39:28;23.90;68.30
53599;DHT22;39485;45.702;11.364;2022-08-11T01:46:00;23.90;68.40
53599;DHT22;39485;45.702;11.364;2022-08-11T01:53:58;23.80;68.70
53599;DHT22;39485;45.702;11.364;2022-08-11T01:59:16;23.80;69.00
53599;DHT22;39485;45.702;11.364;2022-08-11T02:07:39;23.70;69.30
53599;DHT22;39485;45.702;11.364;2022-08-11T02:10:25;23.70;69.20
53599;DHT22;39485;45.702;11.364;2022-08-11T02:13:46;23.60;69.40
53599;DHT22;39485;45.702;11.364;2022-08-11T02:18:47;23.50;69.70
53599;DHT22;39485;45.702;11.364;2022-08-11T02:21:58;23.50;69.70
53599;DHT22;39485;45.702;11.364;2022-08-11T02:28:01;23.40;69.50
53599;DHT22;39485;45.702;11.364;2022-08-11T02:30:32;23.30;69.70
53599;DHT22;39485;45.702;11.364;2022-08-11T02:33:15;23.30;70.40
53599;DHT22;39485;45.702;11.364;2022-08-11T02:38:42;23.20;70.90
53599;DHT22;39485;45.702;11.364;2022-08-11T02:41:35;23.10;71.10
53599;DHT22;39485;45.702;11.364;2022-08-11T02:53:37;22.70;71.60
53599;DHT22;39485;45.702;11.364;2022-08-11T02:57:09;22.60;72.10
53599;DHT22;39485;45.702;11.364;2022-08-11T03:13:00;22.20;73.20
53599;DHT22;39485;45.702;11.364;2022-08-11T03:15:48;22.20;72.90
53599;DHT22;39485;45.702;11.364;2022-08-11T03:18:53;22.10;73.00
53599;DHT22;39485;45.702;11.364;2022-08-11T03:22:11;22.10;72.80
53599;DHT22;39485;45.702;11.364;2022-08-11T03:25:05;22.10;72.50
53599;DHT22;39485;45.702;11.364;2022-08-11T03:35:40;21.90;72.90
53599;DHT22;39485;45.702;11.364;2022-08-11T03:38:14;21.80;72.90
53599;DHT22;39485;45.702;11.364;2022-08-11T03:52:10;21.60;73.10
53599;DHT22;39485;45.702;11.364;2022-08-11T04:11:11;21.20;73.00
53599;DHT22;39485;45.702;11.364;2022-08-11T04:14:09;21.20;73.00
53599;DHT22;39485;45.702;11.364;2022-08-11T04:25:13;21.10;72.90
53599;DHT22;39485;45.702;11.364;2022-08-11T04:31:09;21.10;72.00
53599;DHT22;39485;45.702;11.364;2022-08-11T04:35:01;21.10;72.00
53599;DHT22;39485;45.702;11.364;2022-08-11T04:45:35;20.90;72.30
53599;DHT22;39485;45.702;11.364;2022-08-11T04:51:31;21.00;72.10
53599;DHT22;39485;45.702;11.364;2022-08-11T04:57:21;21.10;71.90
53599;DHT22;39485;45.702;11.364;2022-08-11T05:00:13;21.10;71.80
53599;DHT22;39485;45.702;11.364;2022-08-11T05:03:34;21.10;71.40
53599;DHT22;39485;45.702;11.364;2022-08-11T05:16:58;21.40;70.80
53599;DHT22;39485;45.702;11.364;2022-08-11T05:19:46;21.40;70.90
53599;DHT22;39485;45.702;11.364;2022-08-11T05:22:32;21.30;71.10
53599;DHT22;39485;45.702;11.364;2022-08-11T05:25:26;21.30;71.40
53599;DHT22;39485;45.702;11.364;2022-08-11T05:28:15;21.20;71.60
53599;DHT22;39485;45.702;11.364;2022-08-11T05:31:04;21.20;71.70
53599;DHT22;39485;45.702;11.364;2022-08-11T05:33:53;21.20;71.60
53599;DHT22;39485;45.702;11.364;2022-08-11T05:36:47;21.20;71.80
53599;DHT22;39485;45.702;11.364;2022-08-11T05:39:23;21.20;71.90
53599;DHT22;39485;45.702;11.364;2022-08-11T05:42:09;21.20;71.60
53599;DHT22;39485;45.702;11.364;2022-08-11T05:44:54;21.20;71.60
53599;DHT22;39485;45.702;11.364;2022-08-11T05:47:41;21.30;71.30
53599;DHT22;39485;45.702;11.364;2022-08-11T05:50:26;21.30;71.00
53599;DHT22;39485;45.702;11.364;2022-08-11T05:53:12;21.40;71.10
53599;DHT22;39485;45.702;11.364;2022-08-11T05:55:57;21.50;71.00
53599;DHT22;39485;45.702;11.364;2022-08-11T05:58:49;21.50;70.90
53599;DHT22;39485;45.702;11.364;2022-08-11T06:01:29;21.60;70.80
53599;DHT22;39485;45.702;11.364;2022-08-11T06:03:57;21.70;70.70
53599;DHT22;39485;45.702;11.364;2022-08-11T06:06:45;21.80;70.70
53599;DHT22;39485;45.702;11.364;2022-08-11T06:09:12;21.90;70.40
53599;DHT22;39485;45.702;11.364;2022-08-11T06:11:41;21.90;70.30
53599;DHT22;39485;45.702;11.364;2022-08-11T06:14:08;22.00;70.20
53599;DHT22;39485;45.702;11.364;2022-08-11T06:16:36;22.00;70.00
53599;DHT22;39485;45.702;11.364;2022-08-11T06:19:03;22.00;69.60
53599;DHT22;39485;45.702;11.364;2022-08-11T06:21:32;22.10;69.50
53599;DHT22;39485;45.702;11.364;2022-08-11T06:23:59;22.10;69.50
53599;DHT22;39485;45.702;11.364;2022-08-11T06:26:24;22.20;69.40
53599;DHT22;39485;45.702;11.364;2022-08-11T06:28:50;22.20;69.10
53599;DHT22;39485;45.702;11.364;2022-08-11T06:31:18;22.30;69.00
53599;DHT22;39485;45.702;11.364;2022-08-11T06:36:56;22.40;68.40
53599;DHT22;39485;45.702;11.364;2022-08-11T06:39:38;22.50;68.40
53599;DHT22;39485;45.702;11.364;2022-08-11T06:42:13;22.50;68.20
53599;DHT22;39485;45.702;11.364;2022-08-11T06:44:43;22.60;68.20
53599;DHT22;39485;45.702;11.364;2022-08-11T06:47:15;22.60;67.90
53599;DHT22;39485;45.702;11.364;2022-08-11T06:49:45;22.80;68.00
53599;DHT22;39485;45.702;11.364;2022-08-11T06:52:34;22.80;67.50
53599;DHT22;39485;45.702;11.364;2022-08-11T06:55:13;22.90;67.60
53599;DHT22;39485;45.702;11.364;2022-08-11T06:58:01;23.00;67.60
53599;DHT22;39485;45.702;11.364;2022-08-11T07:00:47;23.10;67.60
53599;DHT22;39485;45.702;11.364;2022-08-11T07:03:19;23.20;67.60
53599;DHT22;39485;45.702;11.364;2022-08-11T07:05:53;23.30;67.40
53599;DHT22;39485;45.702;11.364;2022-08-11T07:08:46;23.30;67.40
53599;DHT22;39485;45.702;11.364;2022-08-11T07:14:50;23.50;67.30
53599;DHT22;39485;45.702;11.364;2022-08-11T07:17:44;23.60;67.30
53599;DHT22;39485;45.702;11.364;2022-08-11T07:20:14;23.80;67.40
53599;DHT22;39485;45.702;11.364;2022-08-11T07:23:16;23.90;67.10
53599;DHT22;39485;45.702;11.364;2022-08-11T07:26:00;24.10;66.60
53599;DHT22;39485;45.702;11.364;2022-08-11T07:29:06;24.20;66.50
53599;DHT22;39485;45.702;11.364;2022-08-11T07:31:52;24.20;66.10
53599;DHT22;39485;45.702;11.364;2022-08-11T07:34:29;24.40;66.10
53599;DHT22;39485;45.702;11.364;2022-08-11T07:36:57;24.40;65.90
53599;DHT22;39485;45.702;11.364;2022-08-11T07:39:26;24.50;65.30
53599;DHT22;39485;45.702;11.364;2022-08-11T07:41:54;24.60;65.00
53599;DHT22;39485;45.702;11.364;2022-08-11T07:44:23;24.70;65.00
53599;DHT22;39485;45.702;11.364;2022-08-11T07:46:51;24.70;64.80
53599;DHT22;39485;45.702;11.364;2022-08-11T07:49:37;24.80;64.50
53599;DHT22;39485;45.702;11.364;2022-08-11T07:52:24;24.90;64.20
53599;DHT22;39485;45.702;11.364;2022-08-11T07:55:01;25.00;63.70
53599;DHT22;39485;45.702;11.364;2022-08-11T07:57:28;25.00;61.30
53599;DHT22;39485;45.702;11.364;2022-08-11T08:00:14;25.10;61.00
53599;DHT22;39485;45.702;11.364;2022-08-11T08:02:59;25.20;60.80
53599;DHT22;39485;45.702;11.364;2022-08-11T08:05:48;25.30;60.20
53599;DHT22;39485;45.702;11.364;2022-08-11T08:08:35;25.40;59.00
53599;DHT22;39485;45.702;11.364;2022-08-11T08:11:20;25.50;57.60
53599;DHT22;39485;45.702;11.364;2022-08-11T08:14:07;25.70;57.30
53599;DHT22;39485;45.702;11.364;2022-08-11T08:16:53;25.90;56.40
53599;DHT22;39485;45.702;11.364;2022-08-11T08:19:39;26.00;55.10
53599;DHT22;39485;45.702;11.364;2022-08-11T08:22:14;26.10;54.20
53599;DHT22;39485;45.702;11.364;2022-08-11T08:24:41;26.20;53.50
53599;DHT22;39485;45.702;11.364;2022-08-11T08:27:08;26.40;53.50
53599;DHT22;39485;45.702;11.364;2022-08-11T08:29:37;26.50;53.60
53599;DHT22;39485;45.702;11.364;2022-08-11T08:32:21;26.70;53.10
53599;DHT22;39485;45.702;11.364;2022-08-11T08:34:51;26.90;53.30
53599;DHT22;39485;45.702;11.364;2022-08-11T08:37:18;27.10;52.60
53599;DHT22;39485;45.702;11.364;2022-08-11T08:39:45;27.30;51.40
53599;DHT22;39485;45.702;11.364;2022-08-11T08:42:38;27.50;50.80
53599;DHT22;39485;45.702;11.364;2022-08-11T08:45:07;27.50;49.00
53599;DHT22;39485;45.702;11.364;2022-08-11T08:47:58;27.60;48.00
53599;DHT22;39485;45.702;11.364;2022-08-11T08:50:28;27.60;46.90
53599;DHT22;39485;45.702;11.364;2022-08-11T08:53:24;27.60;46.40
53599;DHT22;39485;45.702;11.364;2022-08-11T08:55:54;27.70;46.90
53599;DHT22;39485;45.702;11.364;2022-08-11T08:58:23;27.80;47.30
53599;DHT22;39485;45.702;11.364;2022-08-11T09:00:51;27.90;47.80
53599;DHT22;39485;45.702;11.364;2022-08-11T09:03:17;27.90;47.20
53599;DHT22;39485;45.702;11.364;2022-08-11T09:05:44;27.90;46.80
53599;DHT22;39485;45.702;11.364;2022-08-11T09:08:11;27.90;46.50
53599;DHT22;39485;45.702;11.364;2022-08-11T09:10:37;27.90;46.50
53599;DHT22;39485;45.702;11.364;2022-08-11T09:13:04;27.90;46.70
53599;DHT22;39485;45.702;11.364;2022-08-11T09:15:32;27.90;46.50
53599;DHT22;39485;45.702;11.364;2022-08-11T09:17:59;27.90;46.70
53599;DHT22;39485;45.702;11.364;2022-08-11T09:20:34;27.90;46.70
53599;DHT22;39485;45.702;11.364;2022-08-11T09:23:06;27.80;46.50
53599;DHT22;39485;45.702;11.364;2022-08-11T09:25:56;27.80;46.40
53599;DHT22;39485;45.702;11.364;2022-08-11T09:28:43;27.80;46.80
53599;DHT22;39485;45.702;11.364;2022-08-11T09:31:10;27.90;46.90
53599;DHT22;39485;45.702;11.364;2022-08-11T09:33:37;27.80;46.20
53599;DHT22;39485;45.702;11.364;2022-08-11T09:36:05;27.80;46.60
53599;DHT22;39485;45.702;11.364;2022-08-11T09:38:51;27.90;47.90
53599;DHT22;39485;45.702;11.364;2022-08-11T09:41:38;28.00;48.10
53599;DHT22;39485;45.702;11.364;2022-08-11T09:44:05;28.00;46.40
53599;DHT22;39485;45.702;11.364;2022-08-11T09:46:51;28.00;46.40
53599;DHT22;39485;45.702;11.364;2022-08-11T09:49:19;28.00;46.40
53599;DHT22;39485;45.702;11.364;2022-08-11T09:51:49;28.10;46.70
53599;DHT22;39485;45.702;11.364;2022-08-11T09:54:15;28.10;46.40
53599;DHT22;39485;45.702;11.364;2022-08-11T09:56:42;28.20;46.10
53599;DHT22;39485;45.702;11.364;2022-08-11T09:59:27;28.30;45.80
53599;DHT22;39485;45.702;11.364;2022-08-11T10:01:57;28.50;45.80
53599;DHT22;39485;45.702;11.364;2022-08-11T10:04:34;28.60;45.40
53599;DHT22;39485;45.702;11.364;2022-08-11T10:07:03;28.70;45.10
53599;DHT22;39485;45.702;11.364;2022-08-11T10:12:00;28.80;44.40
53599;DHT22;39485;45.702;11.364;2022-08-11T10:14:30;28.80;44.10
53599;DHT22;39485;45.702;11.364;2022-08-11T10:17:17;28.80;44.10
53599;DHT22;39485;45.702;11.364;2022-08-11T10:19:47;28.90;44.50
53599;DHT22;39485;45.702;11.364;2022-08-11T10:22:15;29.00;44.40
53599;DHT22;39485;45.702;11.364;2022-08-11T10:25:01;29.00;44.00
53599;DHT22;39485;45.702;11.364;2022-08-11T10:27:45;29.00;43.70
53599;DHT22;39485;45.702;11.364;2022-08-11T10:30:13;29.00;43.60
53599;DHT22;39485;45.702;11.364;2022-08-11T10:32:57;28.90;43.40
53599;DHT22;39485;45.702;11.364;2022-08-11T10:35:43;28.90;43.60
53599;DHT22;39485;45.702;11.364;2022-08-11T10:38:12;28.80;43.50
53599;DHT22;39485;45.702;11.364;2022-08-11T10:40:39;28.90;44.00
53599;DHT22;39485;45.702;11.364;2022-08-11T10:43:06;28.90;44.60
53599;DHT22;39485;45.702;11.364;2022-08-11T10:45:39;28.90;43.90
53599;DHT22;39485;45.702;11.364;2022-08-11T10:48:28;28.90;43.60
53599;DHT22;39485;45.702;11.364;2022-08-11T10:50:55;28.90;43.60
53599;DHT22;39485;45.702;11.364;2022-08-11T10:53:44;28.90;43.90
53599;DHT22;39485;45.702;11.364;2022-08-11T10:56:33;29.00;44.10
53599;DHT22;39485;45.702;11.364;2022-08-11T10:59:18;29.10;44.70
53599;DHT22;39485;45.702;11.364;2022-08-11T11:01:45;29.10;44.30
53599;DHT22;39485;45.702;11.364;2022-08-11T11:04:16;29.30;44.30
53599;DHT22;39485;45.702;11.364;2022-08-11T11:10:05;29.40;44.60
53599;DHT22;39485;45.702;11.364;2022-08-11T11:12:29;29.50;44.80
53599;DHT22;39485;45.702;11.364;2022-08-11T11:15:17;29.60;44.80
53599;DHT22;39485;45.702;11.364;2022-08-11T11:18:10;29.60;44.80
53599;DHT22;39485;45.702;11.364;2022-08-11T11:20:42;29.70;45.10
53599;DHT22;39485;45.702;11.364;2022-08-11T11:23:22;29.70;45.10
53599;DHT22;39485;45.702;11.364;2022-08-11T11:31:55;29.80;45.30
53599;DHT22;39485;45.702;11.364;2022-08-11T11:37:48;29.90;45.60
53599;DHT22;39485;45.702;11.364;2022-08-11T11:40:17;30.00;45.50
53599;DHT22;39485;45.702;11.364;2022-08-11T11:42:48;30.00;45.50
53599;DHT22;39485;45.702;11.364;2022-08-11T11:45:19;30.00;45.60
53599;DHT22;39485;45.702;11.364;2022-08-11T11:47:47;30.10;45.70
53599;DHT22;39485;45.702;11.364;2022-08-11T11:52:53;30.10;45.20
53599;DHT22;39485;45.702;11.364;2022-08-11T11:55:23;30.10;45.00
53599;DHT22;39485;45.702;11.364;2022-08-11T11:57:53;30.20;45.10
53599;DHT22;39485;45.702;11.364;2022-08-11T12:00:39;30.20;45.00
53599;DHT22;39485;45.702;11.364;2022-08-11T12:03:24;30.30;45.00
53599;DHT22;39485;45.702;11.364;2022-08-11T12:05:51;30.30;44.90
53599;DHT22;39485;45.702;11.364;2022-08-11T12:08:18;30.30;44.90
53599;DHT22;39485;45.702;11.364;2022-08-11T12:10:51;30.40;45.20
53599;DHT22;39485;45.702;11.364;2022-08-11T12:13:43;30.40;45.10
53599;DHT22;39485;45.702;11.364;2022-08-11T12:16:10;30.50;45.00
53599;DHT22;39485;45.702;11.364;2022-08-11T12:18:37;30.50;45.80
53599;DHT22;39485;45.702;11.364;2022-08-11T12:21:05;30.50;45.30
53599;DHT22;39485;45.702;11.364;2022-08-11T12:23:33;30.50;45.30
53599;DHT22;39485;45.702;11.364;2022-08-11T12:26:18;30.50;45.00
53599;DHT22;39485;45.702;11.364;2022-08-11T12:29:04;30.40;44.90
53599;DHT22;39485;45.702;11.364;2022-08-11T12:31:35;30.50;44.90
53599;DHT22;39485;45.702;11.364;2022-08-11T12:34:11;30.50;45.10
53599;DHT22;39485;45.702;11.364;2022-08-11T12:36:40;30.40;45.20
53599;DHT22;39485;45.702;11.364;2022-08-11T12:39:09;30.40;45.00
53599;DHT22;39485;45.702;11.364;2022-08-11T12:41:37;30.40;45.00
53599;DHT22;39485;45.702;11.364;2022-08-11T12:44:24;30.40;45.00
53599;DHT22;39485;45.702;11.364;2022-08-11T12:47:11;30.40;45.10
53599;DHT22;39485;45.702;11.364;2022-08-11T12:49:44;30.40;45.20
53599;DHT22;39485;45.702;11.364;2022-08-11T12:52:34;30.40;45.10
53599;DHT22;39485;45.702;11.364;2022-08-11T12:55:12;30.40;45.10
53599;DHT22;39485;45.702;11.364;2022-08-11T12:57:59;30.40;45.00
53599;DHT22;39485;45.702;11.364;2022-08-11T13:00:45;30.40;44.90
53599;DHT22;39485;45.702;11.364;2022-08-11T13:03:32;30.50;45.10
53599;DHT22;39485;45.702;11.364;2022-08-11T13:06:18;30.50;44.80
53599;DHT22;39485;45.702;11.364;2022-08-11T13:08:45;30.50;45.00
53599;DHT22;39485;45.702;11.364;2022-08-11T13:11:12;30.50;45.10
53599;DHT22;39485;45.702;11.364;2022-08-11T13:13:59;30.50;45.20
53599;DHT22;39485;45.702;11.364;2022-08-11T13:16:31;30.50;45.40
53599;DHT22;39485;45.702;11.364;2022-08-11T13:19:19;30.50;45.10
53599;DHT22;39485;45.702;11.364;2022-08-11T13:21:46;30.40;45.10
53599;DHT22;39485;45.702;11.364;2022-08-11T13:24:13;30.40;45.40
53599;DHT22;39485;45.702;11.364;2022-08-11T13:26:41;30.40;45.40
53599;DHT22;39485;45.702;11.364;2022-08-11T13:29:08;30.40;45.20
53599;DHT22;39485;45.702;11.364;2022-08-11T13:31:35;30.30;45.20
53599;DHT22;39485;45.702;11.364;2022-08-11T13:34:01;30.30;45.10
53599;DHT22;39485;45.702;11.364;2022-08-11T13:36:28;30.30;45.30
53599;DHT22;39485;45.702;11.364;2022-08-11T13:38:54;30.30;45.40
53599;DHT22;39485;45.702;11.364;2022-08-11T13:41:24;30.20;45.30
53599;DHT22;39485;45.702;11.364;2022-08-11T13:44:08;30.20;45.50
53599;DHT22;39485;45.702;11.364;2022-08-11T13:46:34;30.20;45.50
53599;DHT22;39485;45.702;11.364;2022-08-11T13:49:01;30.20;45.60
53599;DHT22;39485;45.702;11.364;2022-08-11T13:51:27;30.20;45.50
53599;DHT22;39485;45.702;11.364;2022-08-11T13:54:10;30.20;45.40
53599;DHT22;39485;45.702;11.364;2022-08-11T13:56:38;30.20;45.50
53599;DHT22;39485;45.702;11.364;2022-08-11T13:59:06;30.20;45.50
53599;DHT22;39485;45.702;11.364;2022-08-11T14:01:41;30.10;45.40
53599;DHT22;39485;45.702;11.364;2022-08-11T14:04:11;30.10;45.60
53599;DHT22;39485;45.702;11.364;2022-08-11T14:06:45;30.10;45.50
53599;DHT22;39485;45.702;11.364;2022-08-11T14:09:15;30.10;45.40
53599;DHT22;39485;45.702;11.364;2022-08-11T14:11:43;30.10;45.40
53599;DHT22;39485;45.702;11.364;2022-08-11T14:14:31;30.00;45.40
53599;DHT22;39485;45.702;11.364;2022-08-11T14:17:06;30.00;45.40
53599;DHT22;39485;45.702;11.364;2022-08-11T14:19:38;30.00;45.30
53599;DHT22;39485;45.702;11.364;2022-08-11T14:22:05;30.00;45.30
53599;DHT22;39485;45.702;11.364;2022-08-11T14:24:32;30.00;45.00
53599;DHT22;39485;45.702;11.364;2022-08-11T14:26:59;30.00;45.20
53599;DHT22;39485;45.702;11.364;2022-08-11T14:29:26;29.90;44.90
53599;DHT22;39485;45.702;11.364;2022-08-11T14:31:59;30.00;45.00
53599;DHT22;39485;45.702;11.364;2022-08-11T14:34:28;29.90;45.10
53599;DHT22;39485;45.702;11.364;2022-08-11T14:37:03;29.90;45.20
53599;DHT22;39485;45.702;11.364;2022-08-11T14:39:53;29.90;45.20
53599;DHT22;39485;45.702;11.364;2022-08-11T14:42:22;29.80;45.00
53599;DHT22;39485;45.702;11.364;2022-08-11T14:45:09;29.80;44.90
53599;DHT22;39485;45.702;11.364;2022-08-11T14:47:59;29.70;44.80
53599;DHT22;39485;45.702;11.364;2022-08-11T14:50:27;29.70;44.80
53599;DHT22;39485;45.702;11.364;2022-08-11T14:52:55;29.70;45.10
53599;DHT22;39485;45.702;11.364;2022-08-11T14:55:26;29.70;45.20
53599;DHT22;39485;45.702;11.364;2022-08-11T14:58:15;29.70;45.20
53599;DHT22;39485;45.702;11.364;2022-08-11T15:00:42;29.70;45.20
53599;DHT22;39485;45.702;11.364;2022-08-11T15:03:11;29.70;45.10
53599;DHT22;39485;45.702;11.364;2022-08-11T15:05:45;29.70;45.20
53599;DHT22;39485;45.702;11.364;2022-08-11T15:08:13;29.70;45.20
53599;DHT22;39485;45.702;11.364;2022-08-11T15:10:40;29.70;45.00
53599;DHT22;39485;45.702;11.364;2022-08-11T15:13:06;29.60;44.90
53599;DHT22;39485;45.702;11.364;2022-08-11T15:15:32;29.60;44.80
53599;DHT22;39485;45.702;11.364;2022-08-11T15:18:20;29.60;44.90
53599;DHT22;39485;45.702;11.364;2022-08-11T15:20:49;29.60;45.00
53599;DHT22;39485;45.702;11.364;2022-08-11T15:23:33;29.60;45.10
53599;DHT22;39485;45.702;11.364;2022-08-11T15:29:16;29.50;45.10
53599;DHT22;39485;45.702;11.364;2022-08-11T15:32:02;29.50;45.00
53599;DHT22;39485;45.702;11.364;2022-08-11T15:34:50;29.50;45.10
53599;DHT22;39485;45.702;11.364;2022-08-11T15:37:36;29.40;45.00
53599;DHT22;39485;45.702;11.364;2022-08-11T15:40:04;29.40;45.00
53599;DHT22;39485;45.702;11.364;2022-08-11T15:43:20;29.40;45.00
53599;DHT22;39485;45.702;11.364;2022-08-11T15:46:18;29.40;45.10
53599;DHT22;39485;45.702;11.364;2022-08-11T15:48:56;29.40;45.10
53599;DHT22;39485;45.702;11.364;2022-08-11T15:53:58;29.40;45.10
53599;DHT22;39485;45.702;11.364;2022-08-11T15:56:29;29.40;45.00
53599;DHT22;39485;45.702;11.364;2022-08-11T15:58:57;29.40;45.10
53599;DHT22;39485;45.702;11.364;2022-08-11T16:01:44;29.40;45.30
53599;DHT22;39485;45.702;11.364;2022-08-11T16:04:32;29.40;45.10
53599;DHT22;39485;45.702;11.364;2022-08-11T16:07:02;29.40;44.90
53599;DHT22;39485;45.702;11.364;2022-08-11T16:12:17;29.40;44.90
53599;DHT22;39485;45.702;11.364;2022-08-11T16:14:47;29.40;45.10
53599;DHT22;39485;45.702;11.364;2022-08-11T16:17:41;29.40;44.90
53599;DHT22;39485;45.702;11.364;2022-08-11T16:20:09;29.30;44.70
53599;DHT22;39485;45.702;11.364;2022-08-11T16:22:36;29.30;44.80
53599;DHT22;39485;45.702;11.364;2022-08-11T16:25:15;29.30;44.80
53599;DHT22;39485;45.702;11.364;2022-08-11T16:27:44;29.30;44.80
53599;DHT22;39485;45.702;11.364;2022-08-11T16:30:11;29.30;44.90
53599;DHT22;39485;45.702;11.364;2022-08-11T16:32:41;29.30;45.00
53599;DHT22;39485;45.702;11.364;2022-08-11T16:35:18;29.30;44.80
53599;DHT22;39485;45.702;11.364;2022-08-11T16:38:05;29.30;44.90
53599;DHT22;39485;45.702;11.364;2022-08-11T16:40:54;29.30;44.90
53599;DHT22;39485;45.702;11.364;2022-08-11T16:43:23;29.20;44.80
53599;DHT22;39485;45.702;11.364;2022-08-11T16:46:08;29.20;44.70
53599;DHT22;39485;45.702;11.364;2022-08-11T16:48:55;29.20;44.80
53599;DHT22;39485;45.702;11.364;2022-08-11T16:51:22;29.20;44.90
53599;DHT22;39485;45.702;11.364;2022-08-11T16:53:49;29.20;45.00
53599;DHT22;39485;45.702;11.364;2022-08-11T16:56:18;29.10;44.70
53599;DHT22;39485;45.702;11.364;2022-08-11T16:58:54;29.10;44.90
53599;DHT22;39485;45.702;11.364;2022-08-11T17:02:12;29.10;45.00
53599;DHT22;39485;45.702;11.364;2022-08-11T17:05:02;29.10;45.10
53599;DHT22;39485;45.702;11.364;2022-08-11T17:07:50;29.10;45.10
53599;DHT22;39485;45.702;11.364;2022-08-11T17:10:39;29.10;45.20
53599;DHT22;39485;45.702;11.364;2022-08-11T17:13:34;29.10;45.60
53599;DHT22;39485;45.702;11.364;2022-08-11T17:16:03;29.10;45.80
53599;DHT22;39485;45.702;11.364;2022-08-11T17:18:53;29.10;46.30
53599;DHT22;39485;45.702;11.364;2022-08-11T17:21:22;29.00;46.40
53599;DHT22;39485;45.702;11.364;2022-08-11T17:23:52;28.90;46.70
53599;DHT22;39485;45.702;11.364;2022-08-11T17:28:47;28.90;46.90
53599;DHT22;39485;45.702;11.364;2022-08-11T17:31:18;28.80;46.80
53599;DHT22;39485;45.702;11.364;2022-08-11T17:34:05;28.70;47.00
53599;DHT22;39485;45.702;11.364;2022-08-11T17:36:53;28.60;47.20
53599;DHT22;39485;45.702;11.364;2022-08-11T17:39:20;28.50;47.50
53599;DHT22;39485;45.702;11.364;2022-08-11T17:41:49;28.40;47.60
53599;DHT22;39485;45.702;11.364;2022-08-11T17:44:35;28.30;47.70
53599;DHT22;39485;45.702;11.364;2022-08-11T17:47:22;28.20;48.10
53599;DHT22;39485;45.702;11.364;2022-08-11T17:50:08;28.10;48.50
53599;DHT22;39485;45.702;11.364;2022-08-11T17:52:34;28.00;48.70
53599;DHT22;39485;45.702;11.364;2022-08-11T17:55:20;28.00;49.00
53599;DHT22;39485;45.702;11.364;2022-08-11T17:58:05;27.90;49.10
53599;DHT22;39485;45.702;11.364;2022-08-11T18:00:50;27.80;49.80
53599;DHT22;39485;45.702;11.364;2022-08-11T18:03:20;27.70;50.60
53599;DHT22;39485;45.702;11.364;2022-08-11T18:06:00;27.70;51.30
53599;DHT22;39485;45.702;11.364;2022-08-11T18:08:29;27.60;51.60
53599;DHT22;39485;45.702;11.364;2022-08-11T18:11:15;27.50;52.40
53599;DHT22;39485;45.702;11.364;2022-08-11T18:14:06;27.40;52.90
53599;DHT22;39485;45.702;11.364;2022-08-11T18:16:51;27.30;53.50
53599;DHT22;39485;45.702;11.364;2022-08-11T18:19:35;27.20;53.70
53599;DHT22;39485;45.702;11.364;2022-08-11T18:22:27;27.00;53.40
53599;DHT22;39485;45.702;11.364;2022-08-11T18:25:15;26.90;53.60
53599;DHT22;39485;45.702;11.364;2022-08-11T18:28:05;26.80;53.70
53599;DHT22;39485;45.702;11.364;2022-08-11T18:30:50;26.60;53.90
53599;DHT22;39485;45.702;11.364;2022-08-11T18:33:43;26.50;54.20
53599;DHT22;39485;45.702;11.364;2022-08-11T18:36:35;26.40;54.40
53599;DHT22;39485;45.702;11.364;2022-08-11T18:39:21;26.30;55.20
53599;DHT22;39485;45.702;11.364;2022-08-11T18:42:11;26.20;55.40
53599;DHT22;39485;45.702;11.364;2022-08-11T18:45:03;26.10;55.90
53599;DHT22;39485;45.702;11.364;2022-08-11T18:47:51;26.00;56.30
53599;DHT22;39485;45.702;11.364;2022-08-11T18:50:41;26.00;57.00
53599;DHT22;39485;45.702;11.364;2022-08-11T18:53:27;25.90;57.50
53599;DHT22;39485;45.702;11.364;2022-08-11T18:56:14;25.90;58.20
53599;DHT22;39485;45.702;11.364;2022-08-11T18:59:02;25.80;58.70
53599;DHT22;39485;45.702;11.364;2022-08-11T19:01:47;25.70;59.50
53599;DHT22;39485;45.702;11.364;2022-08-11T19:04:32;25.60;60.00
53599;DHT22;39485;45.702;11.364;2022-08-11T19:07:18;25.50;60.30
53599;DHT22;39485;45.702;11.364;2022-08-11T19:10:04;25.40;60.50
53599;DHT22;39485;45.702;11.364;2022-08-11T19:12:49;25.40;61.00
53599;DHT22;39485;45.702;11.364;2022-08-11T19:15:34;25.30;61.40
53599;DHT22;39485;45.702;11.364;2022-08-11T19:18:21;25.20;61.60
53599;DHT22;39485;45.702;11.364;2022-08-11T19:21:07;25.10;61.90
53599;DHT22;39485;45.702;11.364;2022-08-11T19:23:55;25.00;62.10
53599;DHT22;39485;45.702;11.364;2022-08-11T19:26:40;24.90;62.40
53599;DHT22;39485;45.702;11.364;2022-08-11T19:29:27;24.90;62.70
53599;DHT22;39485;45.702;11.364;2022-08-11T19:34:50;24.80;62.70
53599;DHT22;39485;45.702;11.364;2022-08-11T19:37:35;24.70;62.60
53599;DHT22;39485;45.702;11.364;2022-08-11T19:40:21;24.60;62.60
53599;DHT22;39485;45.702;11.364;2022-08-11T19:43:06;24.60;63.00